createdAt,value
2019-03-01T00:01:50.538Z,98449.25
2019-03-01T00:05:08.368Z,98445.62
2019-03-01T00:08:08.057Z,98440.67
2019-03-01T00:11:18.566Z,98441.91
2019-03-01T00:14:24.561Z,98440.47
2019-03-01T00:17:15.039Z,98440.52
2019-03-01T00:20:18.319Z,98440.69
2019-03-01T00:23:26.432Z,98439.07
2019-03-01T00:26:29.285Z,98430.59
2019-03-01T00:29:30.636Z,98431.27
2019-03-01T00:32:43.276Z,98432.66
2019-03-01T00:35:42.735Z,98430.63
2019-03-01T00:38:33.967Z,98436.08
2019-03-01T00:41:41.230Z,98429.53
2019-03-01T00:44:38.761Z,98424.60
2019-03-01T00:47:08.963Z,98428.86
2019-03-01T00:49:39.245Z,98422.81
2019-03-01T00:52:10.364Z,98423.56
2019-03-01T00:54:41.706Z,98422.73
2019-03-01T00:57:13.284Z,98426.41
2019-03-01T00:59:43.578Z,98431.01
2019-03-01T01:02:13.903Z,98416.11
2019-03-01T01:04:44.537Z,98418.06
2019-03-01T01:07:14.792Z,98412.79
2019-03-01T01:09:45.320Z,98411.20
2019-03-01T01:12:15.714Z,98406.49
2019-03-01T01:14:45.995Z,98410.90
2019-03-01T01:17:16.254Z,98408.75
2019-03-01T01:19:46.622Z,98406.50
2019-03-01T01:22:16.934Z,98400.03
2019-03-01T01:24:47.213Z,98396.57
2019-03-01T01:27:19.397Z,98398.14
2019-03-01T01:29:49.722Z,98403.99
2019-03-01T01:32:20.028Z,98406.88
2019-03-01T01:34:50.985Z,98401.58
2019-03-01T01:37:21.305Z,98399.89
2019-03-01T01:39:51.658Z,98399.66
2019-03-01T01:42:22.066Z,98397.51
2019-03-01T01:44:52.306Z,98398.60
2019-03-01T01:47:22.630Z,98401.58
2019-03-01T01:49:52.913Z,98400.08
2019-03-01T01:52:23.250Z,98397.41
2019-03-01T01:54:53.485Z,98396.22
2019-03-01T01:57:23.735Z,98391.91
2019-03-01T01:59:54.082Z,98390.50
2019-03-01T02:02:24.332Z,98380.03
2019-03-01T02:04:54.949Z,98385.63
2019-03-01T02:07:25.269Z,98380.17
2019-03-01T02:09:55.509Z,98378.27
2019-03-01T02:12:26.000Z,98379.48
2019-03-01T02:14:56.270Z,98371.71
2019-03-01T02:17:26.588Z,98364.84
2019-03-01T02:19:56.888Z,98360.27
2019-03-01T02:22:27.156Z,98360.49
2019-03-01T02:24:57.363Z,98356.20
2019-03-01T02:27:29.699Z,98349.58
2019-03-01T02:30:01.136Z,98353.22
2019-03-01T02:32:35.600Z,98353.66
2019-03-01T02:35:06.859Z,98347.31
2019-03-01T02:37:37.122Z,98351.48
2019-03-01T02:40:08.898Z,98343.03
2019-03-01T02:42:39.190Z,98340.74
2019-03-01T02:45:12.875Z,98340.52
2019-03-01T02:47:43.442Z,98343.91
2019-03-01T02:50:14.936Z,98343.12
2019-03-01T02:52:45.220Z,98340.33
2019-03-01T02:55:17.439Z,98335.36
2019-03-01T02:57:47.854Z,98337.33
2019-03-01T03:00:20.404Z,98331.55
2019-03-01T03:02:50.803Z,98329.64
2019-03-01T03:05:21.430Z,98331.33
2019-03-01T03:07:59.820Z,98327.91
2019-03-01T03:10:30.193Z,98330.30
2019-03-01T03:13:02.716Z,98331.86
2019-03-01T03:15:39.367Z,98329.88
2019-03-01T03:18:09.817Z,98324.48
2019-03-01T03:20:40.205Z,98323.35
2019-03-01T03:23:10.567Z,98327.80
2019-03-01T03:25:40.853Z,98320.88
2019-03-01T03:28:11.055Z,98330.40
2019-03-01T03:30:41.421Z,98319.45
2019-03-01T03:33:11.836Z,98331.78
2019-03-01T03:35:43.761Z,98331.05
2019-03-01T03:38:14.094Z,98335.02
2019-03-01T03:40:44.439Z,98323.98
2019-03-01T03:43:15.156Z,98325.58
2019-03-01T03:45:45.425Z,98321.98
2019-03-01T03:48:15.680Z,98319.77
2019-03-01T03:50:46.029Z,98312.45
2019-03-01T03:53:16.716Z,98312.61
2019-03-01T03:55:47.013Z,98314.16
2019-03-01T03:58:17.224Z,98311.45
2019-03-01T04:00:47.497Z,98312.66
2019-03-01T04:03:17.769Z,98312.76
2019-03-01T04:05:48.267Z,98308.25
2019-03-01T04:08:18.798Z,98309.89
2019-03-01T04:10:49.050Z,98307.99
2019-03-01T04:13:19.316Z,98309.24
2019-03-01T04:15:50.258Z,98305.90
2019-03-01T04:18:20.520Z,98303.36
2019-03-01T04:20:50.762Z,98301.92
2019-03-01T04:23:21.104Z,98303.34
2019-03-01T04:25:51.423Z,98295.67
2019-03-01T04:28:21.672Z,98285.55
2019-03-01T04:30:51.925Z,98294.71
2019-03-01T04:33:22.184Z,98283.12
2019-03-01T04:35:52.505Z,98287.56
2019-03-01T04:38:22.958Z,98282.98
2019-03-01T04:40:53.209Z,98278.03
2019-03-01T04:43:23.597Z,98277.09
2019-03-01T04:45:55.581Z,98276.05
2019-03-01T04:48:25.933Z,98285.93
2019-03-01T04:50:56.306Z,98280.48
2019-03-01T04:53:26.540Z,98273.55
2019-03-01T04:55:56.784Z,98288.23
2019-03-01T04:58:27.078Z,98283.16
2019-03-01T05:00:57.775Z,98279.08
2019-03-01T05:03:28.047Z,98268.78
2019-03-01T05:05:58.595Z,98268.89
2019-03-01T05:08:28.857Z,98274.51
2019-03-01T05:10:59.230Z,98273.12
2019-03-01T05:13:29.478Z,98262.36
2019-03-01T05:16:01.349Z,98255.45
2019-03-01T05:18:31.590Z,98256.47
2019-03-01T05:21:02.966Z,98254.83
2019-03-01T05:23:33.293Z,98257.34
2019-03-01T05:26:03.583Z,98261.14
2019-03-01T05:28:33.845Z,98253.06
2019-03-01T05:31:04.092Z,98254.96
2019-03-01T05:33:34.417Z,98259.42
2019-03-01T05:36:04.686Z,98263.74
2019-03-01T05:38:34.975Z,98266.58
2019-03-01T05:41:05.230Z,98258.84
2019-03-01T05:43:35.549Z,98257.87
2019-03-01T05:46:05.747Z,98255.22
2019-03-01T05:48:36.145Z,98256.73
2019-03-01T05:51:08.164Z,98258.14
2019-03-01T05:53:38.485Z,98255.31
2019-03-01T05:56:10.850Z,98258.03
2019-03-01T05:58:47.289Z,98256.84
2019-03-01T06:01:33.272Z,98261.34
2019-03-01T06:04:16.702Z,98253.61
2019-03-01T06:07:22.934Z,98249.75
2019-03-01T06:09:58.827Z,98251.80
2019-03-01T06:13:09.147Z,98249.69
2019-03-01T06:15:56.728Z,98247.90
2019-03-01T06:19:02.978Z,98251.08
2019-03-01T06:22:08.576Z,98253.06
2019-03-01T06:24:51.816Z,98255.66
2019-03-01T06:27:45.974Z,98255.83
2019-03-01T06:31:02.821Z,98257.77
2019-03-01T06:34:32.091Z,98248.75
2019-03-01T06:37:20.321Z,98252.02
2019-03-01T06:40:40.543Z,98245.39
2019-03-01T06:43:52.200Z,98252.22
2019-03-01T06:46:40.594Z,98257.52
2019-03-01T06:49:25.768Z,98260.39
2019-03-01T06:51:56.111Z,98258.98
2019-03-01T06:54:26.382Z,98256.59
2019-03-01T06:56:56.737Z,98249.92
2019-03-01T06:59:29.406Z,98253.20
2019-03-01T07:02:06.434Z,98249.08
2019-03-01T07:04:38.950Z,98255.94
2019-03-01T07:07:11.456Z,98254.47
2019-03-01T07:09:44.109Z,98252.94
2019-03-01T07:12:17.135Z,98247.87
2019-03-01T07:14:48.692Z,98249.92
2019-03-01T07:17:19.592Z,98246.92
2019-03-01T07:19:55.667Z,98242.73
2019-03-01T07:22:28.511Z,98242.11
2019-03-01T07:24:59.536Z,98241.86
2019-03-01T07:27:30.801Z,98237.74
2019-03-01T07:30:02.469Z,98243.17
2019-03-01T07:32:34.132Z,98248.17
2019-03-01T07:35:05.865Z,98248.42
2019-03-01T07:37:37.330Z,98248.87
2019-03-01T07:40:08.569Z,98246.57
2019-03-01T07:42:38.789Z,98250.69
2019-03-01T07:45:10.763Z,98247.11
2019-03-01T07:47:43.661Z,98243.32
2019-03-01T07:50:14.351Z,98246.83
2019-03-01T07:52:46.955Z,98250.44
2019-03-01T07:55:19.572Z,98248.00
2019-03-01T07:57:50.661Z,98247.57
2019-03-01T08:00:21.189Z,98249.09
2019-03-01T08:02:51.463Z,98246.69
2019-03-01T08:05:22.300Z,98247.20
2019-03-01T08:07:56.019Z,98249.76
2019-03-01T08:10:25.456Z,98250.11
2019-03-01T08:12:55.728Z,98253.38
2019-03-01T08:15:49.067Z,98258.95
2019-03-01T08:18:23.028Z,98254.17
2019-03-01T08:20:53.427Z,98253.58
2019-03-01T08:23:31.749Z,98252.97
2019-03-01T08:26:06.542Z,98253.86
2019-03-01T08:28:37.030Z,98254.45
2019-03-01T08:31:17.414Z,98258.42
2019-03-01T08:33:57.520Z,98259.24
2019-03-01T08:36:38.610Z,98256.69
2019-03-01T08:39:11.496Z,98252.20
2019-03-01T08:41:41.882Z,98250.20
2019-03-01T08:44:12.274Z,98246.42
2019-03-01T08:46:45.584Z,98251.97
2019-03-01T08:49:14.548Z,98258.45
2019-03-01T08:51:44.822Z,98257.53
2019-03-01T08:54:16.343Z,98261.82
2019-03-01T08:56:50.269Z,98258.66
2019-03-01T08:59:19.770Z,98256.05
2019-03-01T09:01:50.199Z,98252.12
2019-03-01T09:04:21.745Z,98251.27
2019-03-01T09:06:53.145Z,98251.59
2019-03-01T09:09:23.731Z,98250.31
2019-03-01T09:11:54.066Z,98252.61
2019-03-01T09:14:26.206Z,98245.72
2019-03-01T09:16:56.367Z,98244.83
2019-03-01T09:19:26.769Z,98243.34
2019-03-01T09:21:59.871Z,98237.93
2019-03-01T09:24:30.100Z,98240.70
2019-03-01T09:27:00.369Z,98231.52
2019-03-01T09:29:30.644Z,98235.70
2019-03-01T09:32:01.937Z,98229.02
2019-03-01T09:34:33.022Z,98232.73
2019-03-01T09:37:03.366Z,98234.38
2019-03-01T09:39:33.827Z,98234.00
2019-03-01T09:42:06.230Z,98238.83
2019-03-01T09:44:38.441Z,98235.92
2019-03-01T09:47:10.255Z,98232.20
2019-03-01T09:49:42.270Z,98235.22
2019-03-01T09:52:12.776Z,98230.67
2019-03-01T09:54:43.539Z,98234.55
2019-03-01T09:57:21.610Z,98227.89
2019-03-01T10:00:02.123Z,98224.90
2019-03-01T10:02:41.571Z,98222.58
2019-03-01T10:05:22.302Z,98223.91
2019-03-01T10:08:02.588Z,98229.25
2019-03-01T10:10:46.731Z,98221.97
2019-03-01T10:13:30.316Z,98224.63
2019-03-01T10:16:08.051Z,98226.84
2019-03-01T10:18:47.410Z,98226.97
2019-03-01T10:21:26.706Z,98223.89
2019-03-01T10:24:07.996Z,98222.58
2019-03-01T10:26:46.795Z,98225.37
2019-03-01T10:29:27.975Z,98232.23
2019-03-01T10:32:07.720Z,98231.28
2019-03-01T10:34:48.449Z,98231.09
2019-03-01T10:37:32.204Z,98231.62
2019-03-01T10:40:13.592Z,98223.50
2019-03-01T10:42:54.724Z,98230.45
2019-03-01T10:45:34.956Z,98233.34
2019-03-01T10:48:14.948Z,98235.17
2019-03-01T10:51:07.356Z,98232.95
2019-03-01T10:53:50.564Z,98230.52
2019-03-01T10:56:27.366Z,98233.40
2019-03-01T10:58:58.511Z,98227.73
2019-03-01T11:01:28.845Z,98230.27
2019-03-01T11:03:59.192Z,98225.81
2019-03-01T11:06:29.536Z,98223.06
2019-03-01T11:09:00.208Z,98226.45
2019-03-01T11:11:37.839Z,98226.45
2019-03-01T11:14:10.043Z,98225.18
2019-03-01T11:16:40.492Z,98226.47
2019-03-01T11:19:11.310Z,98229.52
2019-03-01T11:21:47.691Z,98234.78
2019-03-01T11:24:28.904Z,98233.89
2019-03-01T11:27:12.814Z,98237.91
2019-03-01T11:29:48.450Z,98233.92
2019-03-01T11:32:29.815Z,98235.23
2019-03-01T11:35:09.607Z,98232.63
2019-03-01T11:37:49.510Z,98239.34
2019-03-01T11:40:34.730Z,98235.77
2019-03-01T11:43:07.670Z,98227.27
2019-03-01T11:45:39.407Z,98227.07
2019-03-01T11:48:09.818Z,98223.66
2019-03-01T11:50:41.995Z,98224.14
2019-03-01T11:53:12.315Z,98227.45
2019-03-01T11:55:42.640Z,98227.67
2019-03-01T11:58:13.125Z,98229.34
2019-03-01T12:00:52.065Z,98216.06
2019-03-01T12:03:23.908Z,98222.83
2019-03-01T12:06:03.292Z,98217.30
2019-03-01T12:08:43.333Z,98211.96
2019-03-01T12:11:23.481Z,98219.55
2019-03-01T12:14:07.972Z,98215.31
2019-03-01T12:16:48.373Z,98215.31
2019-03-01T12:19:28.334Z,98220.69
2019-03-01T12:22:16.764Z,98215.12
2019-03-01T12:24:50.688Z,98210.53
2019-03-01T12:27:29.259Z,98215.91
2019-03-01T12:30:07.745Z,98211.80
2019-03-01T12:32:47.895Z,98213.69
2019-03-01T12:35:28.028Z,98211.20
2019-03-01T12:38:07.227Z,98210.34
2019-03-01T12:40:47.486Z,98216.36
2019-03-01T12:43:18.796Z,98211.67
2019-03-01T12:45:49.063Z,98212.23
2019-03-01T12:48:19.269Z,98212.72
2019-03-01T12:50:49.518Z,98208.20
2019-03-01T12:53:20.292Z,98206.97
2019-03-01T12:55:51.847Z,98225.87
2019-03-01T12:58:22.042Z,98217.26
2019-03-01T13:00:52.973Z,98221.58
2019-03-01T13:03:29.987Z,98220.14
2019-03-01T13:06:03.834Z,98220.79
2019-03-01T13:08:35.757Z,98219.83
2019-03-01T13:11:06.460Z,98216.44
2019-03-01T13:13:57.459Z,98231.04
2019-03-01T13:16:38.452Z,98236.93
2019-03-01T13:19:09.402Z,98241.31
2019-03-01T13:21:39.629Z,98237.50
2019-03-01T13:24:12.572Z,98232.01
2019-03-01T13:30:16.542Z,98237.92
2019-03-01T13:32:59.004Z,98243.11
2019-03-01T13:35:41.424Z,98239.87
2019-03-01T13:38:46.181Z,98236.78
2019-03-01T13:41:17.330Z,98233.30
2019-03-01T13:43:47.930Z,98239.03
2019-03-01T13:46:18.245Z,98240.13
2019-03-01T13:48:50.911Z,98248.16
2019-03-01T13:51:22.637Z,98242.82
2019-03-01T13:53:53.215Z,98247.42
2019-03-01T13:56:32.789Z,98242.75
2019-03-01T13:59:09.029Z,98255.53
2019-03-01T14:01:47.812Z,98255.99
2019-03-01T14:04:19.057Z,98258.06
2019-03-01T14:06:49.774Z,98261.26
2019-03-01T14:09:23.313Z,98265.52
2019-03-01T14:11:55.890Z,98267.09
2019-03-01T14:14:31.439Z,98267.91
2019-03-01T14:17:24.501Z,98267.11
2019-03-01T14:20:21.321Z,98263.47
2019-03-01T14:23:04.671Z,98274.36
2019-03-01T14:26:04.783Z,98275.69
2019-03-01T14:28:55.597Z,98271.34
2019-03-01T14:31:32.878Z,98274.95
2019-03-01T14:34:04.145Z,98279.17
2019-03-01T14:36:45.087Z,98278.58
2019-03-01T14:39:28.381Z,98281.23
2019-03-01T14:42:10.947Z,98288.39
2019-03-01T14:44:47.931Z,98285.64
2019-03-01T14:47:25.292Z,98296.19
2019-03-01T14:50:04.340Z,98299.19
2019-03-01T14:52:34.999Z,98306.92
2019-03-01T14:55:05.812Z,98312.97
2019-03-01T14:57:47.079Z,98307.39
2019-03-01T15:00:35.192Z,98314.63
2019-03-01T15:03:39.895Z,98306.64
2019-03-01T15:06:19.122Z,98305.89
2019-03-01T15:08:51.162Z,98305.45
2019-03-01T15:11:22.972Z,98305.31
2019-03-01T15:13:54.770Z,98310.56
2019-03-01T15:16:25.160Z,98312.86
2019-03-01T15:18:55.904Z,98312.30
2019-03-01T15:21:26.913Z,98310.32
2019-03-01T15:24:00.354Z,98316.05
2019-03-01T15:26:30.024Z,98317.09
2019-03-01T15:29:00.517Z,98324.31
2019-03-01T15:31:31.204Z,98330.09
2019-03-01T15:34:02.147Z,98336.39
2019-03-01T15:36:33.828Z,98342.09
2019-03-01T15:39:08.544Z,98339.41
2019-03-01T15:41:42.075Z,98346.20
2019-03-01T15:44:11.490Z,98348.44
2019-03-01T15:46:42.098Z,98347.47
2019-03-01T15:49:15.147Z,98352.16
2019-03-01T15:51:45.644Z,98350.25
2019-03-01T15:54:16.292Z,98360.51
2019-03-01T15:56:47.116Z,98362.41
2019-03-01T15:59:17.531Z,98373.67
2019-03-01T16:01:48.205Z,98373.22
2019-03-01T16:04:18.559Z,98377.16
2019-03-01T16:06:49.244Z,98375.06
2019-03-01T16:09:21.836Z,98381.52
2019-03-01T16:11:53.133Z,98383.50
2019-03-01T16:14:25.065Z,98382.70
2019-03-01T16:16:56.293Z,98383.57
2019-03-01T16:19:29.220Z,98391.45
2019-03-01T16:21:59.433Z,98393.10
2019-03-01T16:24:29.963Z,98401.08
2019-03-01T16:27:00.740Z,98405.28
2019-03-01T16:29:31.321Z,98409.04
2019-03-01T16:32:04.736Z,98417.27
2019-03-01T16:34:33.848Z,98420.62
2019-03-01T16:37:04.176Z,98432.97
2019-03-01T16:39:35.263Z,98434.57
2019-03-01T16:42:05.556Z,98434.86
2019-03-01T16:44:37.060Z,98442.34
2019-03-01T16:47:07.614Z,98438.73
2019-03-01T16:49:38.611Z,98447.08
2019-03-01T16:52:11.307Z,98445.42
2019-03-01T16:54:43.811Z,98454.56
2019-03-01T16:57:15.034Z,98456.83
2019-03-01T16:59:46.365Z,98457.03
2019-03-01T17:02:16.653Z,98470.00
2019-03-01T17:04:47.080Z,98476.34
2019-03-01T17:07:17.406Z,98478.58
2019-03-01T17:09:51.337Z,98475.91
2019-03-01T17:12:22.501Z,98482.05
2019-03-01T17:14:53.325Z,98484.73
2019-03-01T17:17:23.776Z,98487.28
2019-03-01T17:19:54.147Z,98496.27
2019-03-01T17:22:26.409Z,98502.02
2019-03-01T17:24:56.800Z,98507.53
2019-03-01T17:27:27.055Z,98507.66
2019-03-01T17:29:57.355Z,98513.95
2019-03-01T17:32:28.579Z,98524.72
2019-03-01T17:35:01.125Z,98516.34
2019-03-01T17:37:33.295Z,98522.73
2019-03-01T17:40:03.785Z,98520.92
2019-03-01T17:42:37.039Z,98526.41
2019-03-01T17:45:11.844Z,98541.67
2019-03-01T17:47:45.384Z,98544.13
2019-03-01T17:50:14.583Z,98545.50
2019-03-01T17:52:45.947Z,98557.64
2019-03-01T17:55:17.543Z,98562.73
2019-03-01T17:57:50.189Z,98572.04
2019-03-01T18:00:26.550Z,98571.13
2019-03-01T18:02:58.544Z,98580.46
2019-03-01T18:05:29.732Z,98579.14
2019-03-01T18:08:03.586Z,98586.31
2019-03-01T18:10:36.799Z,98595.57
2019-03-01T18:13:07.171Z,98593.97
2019-03-01T18:15:37.824Z,98589.11
2019-03-01T18:18:08.922Z,98587.09
2019-03-01T18:20:41.771Z,98602.73
2019-03-01T18:23:13.639Z,98606.39
2019-03-01T18:25:43.911Z,98604.05
2019-03-01T18:28:14.414Z,98612.98
2019-03-01T18:30:46.380Z,98618.73
2019-03-01T18:33:20.561Z,98621.50
2019-03-01T18:35:52.449Z,98629.11
2019-03-01T18:38:21.202Z,98626.95
2019-03-01T18:40:54.375Z,98631.39
2019-03-01T18:43:28.286Z,98639.27
2019-03-01T18:45:58.685Z,98640.77
2019-03-01T18:48:29.977Z,98646.09
2019-03-01T18:51:03.561Z,98649.19
2019-03-01T18:53:32.937Z,98652.16
2019-03-01T18:56:03.378Z,98655.25
2019-03-01T18:58:36.456Z,98661.09
2019-03-01T19:01:10.888Z,98663.26
2019-03-01T19:03:40.513Z,98666.48
2019-03-01T19:06:12.899Z,98670.95
2019-03-01T19:08:46.112Z,98664.11
2019-03-01T19:11:16.741Z,98665.44
2019-03-01T19:13:47.299Z,98672.02
2019-03-01T19:16:18.188Z,98671.73
2019-03-01T19:18:51.239Z,98673.63
2019-03-01T19:21:23.669Z,98677.56
2019-03-01T19:23:54.286Z,98678.93
2019-03-01T19:26:24.707Z,98674.66
2019-03-01T19:28:59.023Z,98683.89
2019-03-01T19:31:28.454Z,98691.55
2019-03-01T19:33:59.160Z,98697.59
2019-03-01T19:36:29.636Z,98700.22
2019-03-01T19:39:01.559Z,98709.03
2019-03-01T19:41:33.593Z,98711.86
2019-03-01T19:44:05.795Z,98713.09
2019-03-01T19:46:36.487Z,98711.34
2019-03-01T19:49:09.427Z,98717.70
2019-03-01T19:51:44.891Z,98714.78
2019-03-01T19:54:15.358Z,98717.70
2019-03-01T19:56:46.762Z,98724.03
2019-03-01T19:59:17.577Z,98717.70
2019-03-01T20:01:49.467Z,98720.62
2019-03-01T20:04:21.804Z,98716.91
2019-03-01T20:06:52.815Z,98729.62
2019-03-01T20:09:23.115Z,98717.47
2019-03-01T20:11:59.227Z,98721.14
2019-03-01T20:14:33.836Z,98726.38
2019-03-01T20:17:02.708Z,98733.00
2019-03-01T20:19:33.979Z,98738.53
2019-03-01T20:22:05.084Z,98742.73
2019-03-01T20:24:40.075Z,98748.31
2019-03-01T20:27:09.745Z,98751.20
2019-03-01T20:29:40.064Z,98756.49
2019-03-01T20:32:12.619Z,98760.95
2019-03-01T20:34:43.535Z,98758.87
2019-03-01T20:37:16.578Z,98760.73
2019-03-01T20:39:47.433Z,98759.63
2019-03-01T20:42:23.598Z,98765.20
2019-03-01T20:44:53.990Z,98769.41
2019-03-01T20:47:24.585Z,98773.91
2019-03-01T20:49:54.902Z,98777.85
2019-03-01T20:52:27.254Z,98777.36
2019-03-01T20:55:00.661Z,98776.03
2019-03-01T20:57:32.406Z,98775.51
2019-03-01T21:00:03.428Z,98779.98
2019-03-01T21:02:35.670Z,98789.48
2019-03-01T21:05:09.699Z,98790.80
2019-03-01T21:07:41.831Z,98789.77
2019-03-01T21:10:15.970Z,98796.36
2019-03-01T21:12:49.210Z,98799.02
2019-03-01T21:15:22.746Z,98803.92
2019-03-01T21:17:57.145Z,98807.62
2019-03-01T21:20:26.272Z,98811.65
2019-03-01T21:22:57.031Z,98811.89
2019-03-01T21:25:30.298Z,98821.30
2019-03-01T21:28:01.718Z,98819.75
2019-03-01T21:30:32.414Z,98822.13
2019-03-01T21:33:02.918Z,98818.23
2019-03-01T21:35:33.246Z,98819.79
2019-03-01T21:38:03.968Z,98818.77
2019-03-01T21:40:34.819Z,98817.73
2019-03-01T21:43:07.000Z,98824.58
2019-03-01T21:45:39.602Z,98826.41
2019-03-01T21:48:10.010Z,98831.16
2019-03-01T21:50:42.442Z,98831.97
2019-03-01T21:53:12.851Z,98837.75
2019-03-01T21:55:43.204Z,98842.74
2019-03-01T21:58:13.489Z,98840.52
2019-03-01T22:00:43.779Z,98841.35
2019-03-01T22:03:14.130Z,98847.67
2019-03-01T22:05:45.395Z,98843.21
2019-03-01T22:08:16.543Z,98845.58
2019-03-01T22:10:46.872Z,98846.80
2019-03-01T22:13:19.545Z,98848.19
2019-03-01T22:15:53.219Z,98855.19
2019-03-01T22:18:24.869Z,98861.05
2019-03-01T22:20:55.291Z,98863.36
2019-03-01T22:23:25.967Z,98863.05
2019-03-01T22:25:56.981Z,98867.08
2019-03-01T22:28:27.241Z,98871.54
2019-03-01T22:31:00.281Z,98874.42
2019-03-01T22:33:29.746Z,98870.08
2019-03-01T22:35:59.992Z,98870.25
2019-03-01T22:38:30.400Z,98875.52
2019-03-01T22:41:03.883Z,98878.59
2019-03-01T22:43:32.628Z,98873.89
2019-03-01T22:46:02.924Z,98873.11
2019-03-01T22:48:33.284Z,98876.59
2019-03-01T22:51:03.582Z,98873.92
2019-03-01T22:53:34.026Z,98875.44
2019-03-01T22:56:04.366Z,98873.04
2019-03-01T22:58:36.496Z,98864.11
2019-03-01T23:01:50.889Z,98864.80
2019-03-01T23:04:22.312Z,98861.05
2019-03-01T23:06:52.822Z,98863.00
2019-03-01T23:09:23.434Z,98859.11
2019-03-01T23:11:55.378Z,98862.44
2019-03-01T23:14:27.368Z,98873.63
2019-03-01T23:16:58.927Z,98874.72
2019-03-01T23:19:29.701Z,98875.45
2019-03-01T23:22:00.002Z,98878.81
2019-03-01T23:24:49.517Z,98869.04
2019-03-01T23:27:20.431Z,98874.52
2019-03-01T23:29:54.265Z,98874.96
2019-03-01T23:32:23.804Z,98884.80
2019-03-01T23:34:54.157Z,98880.49
2019-03-01T23:37:24.442Z,98881.97
2019-03-01T23:39:57.146Z,98883.04
2019-03-01T23:42:26.703Z,98884.26
2019-03-01T23:44:59.227Z,98886.81
2019-03-01T23:47:29.487Z,98892.41
2019-03-01T23:50:00.799Z,98882.52
2019-03-01T23:52:32.377Z,98898.72
2019-03-01T23:55:03.851Z,98889.00
2019-03-01T23:57:34.163Z,98886.81
